Airfield :







YOU CAN JOIN US ON...

 
LOGIN :

Register | Disclaimer

   EN    FR    IT 

 









Legend :    VFR   Marginal VFR   IFR   Intensive IFR   Very Intensive IFR
Visi :
Ceiling :
>= 8 km
>= 3000ft
5 to 8 km
1000 to 3000 ft
1500m to 5 km
500 to 1000 ft
800 to 1500m
200 to 500 ft
< 800m
< 200 ft
Symbols :   Thunderstorms  Fog  Heavy snow  Heavy precipitations  Wind > 20 kt






- Airport Elevation : 92 ft
- IATA code : YZX


CYZX - CFB Greenwood

CURRENT METAR :
  • 170100Z 26005KT 15SM FEW250 14/07 A3019 RMK CI1 DENSITY ALT -139FT SLP224

EXPIRED METARs :
  • 170000Z 24006KT 15SM FEW250 18/06 A3017 RMK CI1 DENSITY ALT 242FT SLP216
  • 162300Z 27009KT 15SM FEW250 19/05 A3016 RMK CI1 DENSITY ALT 467FT SLP213
  • 162200Z 25010KT 15SM SKC 21/05 A3015 RMK DENSITY ALT 704FT SLP210
  • 162100Z 27009KT 15SM SKC 21/05 A3015 RMK DENSITY ALT 712FT SLP209

TAF TAF CYZX
Valid from the 17 at 00:00 until the 18 at 00:00 UTC


162340Z 1700/1724 27010KT P6SM FEW250
BECMG 1700/1702 22005KT
FM170200 22005KT P6SM SCT250
FM171600 27010KT P6SM BKN200
FM171800 29010G20KT P6SM OVC150
FM172100 26005KT P6SM SCT050 OVC100 RMK NXT FCST BY 170600Z
CZQM FIR / North America



MET'MAP, your aeronautical weather chart ! - Copyright ORBIFLY December 2007 - Disclaimer

ORBIFLY MET'MAP TEAM :

Programming & Development : Alexandra Zaïnal
Original concept : Baudouin d'Aumeries
Technical & hardware support : Manuel Goepfert
Assistance : Marc-Olivier Méhu




SOURCES & CREDITS :

   NOAA